createdAt,value
2023-05-25T00:00:06.206Z,81.47
2023-05-25T00:02:09.485Z,81.58
2023-05-25T00:04:17.151Z,81.59
2023-05-25T00:06:21.102Z,81.64
2023-05-25T00:08:25.524Z,81.85
2023-05-25T00:10:28.824Z,81.94
2023-05-25T00:12:32.268Z,81.93
2023-05-25T00:14:35.994Z,81.98
2023-05-25T00:16:40.826Z,82.04
2023-05-25T00:18:44.567Z,82.02
2023-05-25T00:20:49.297Z,82.24
2023-05-25T00:22:56.259Z,82.19
2023-05-25T00:24:59.606Z,82.36
2023-05-25T00:27:03.225Z,82.59
2023-05-25T00:29:07.282Z,82.79
2023-05-25T00:31:10.654Z,82.85
2023-05-25T00:33:14.194Z,83.00
2023-05-25T00:35:17.605Z,82.94
2023-05-25T00:37:23.549Z,83.01
2023-05-25T00:39:26.844Z,83.03
2023-05-25T00:41:31.987Z,83.01
2023-05-25T00:43:35.359Z,83.11
2023-05-25T00:45:39.028Z,83.17
2023-05-25T00:47:42.676Z,83.33
2023-05-25T00:49:46.293Z,83.41
2023-05-25T00:51:50.157Z,83.35
2023-05-25T00:53:54.896Z,83.36
2023-05-25T00:56:06.332Z,83.42
2023-05-25T00:58:09.786Z,83.40
2023-05-25T01:00:15.442Z,83.54
2023-05-25T01:02:21.105Z,83.50
2023-05-25T01:04:25.537Z,83.58
2023-05-25T01:06:33.555Z,83.66
2023-05-25T01:08:38.541Z,83.60
2023-05-25T01:10:44.238Z,83.63
2023-05-25T01:12:48.636Z,83.78
2023-05-25T01:14:53.417Z,83.93
2023-05-25T01:16:59.019Z,84.06
2023-05-25T01:19:02.498Z,84.18
2023-05-25T01:21:14.201Z,84.17
2023-05-25T01:23:20.639Z,84.16
2023-05-25T01:25:31.580Z,84.33
2023-05-25T01:27:41.241Z,84.29
2023-05-25T01:29:46.738Z,84.39
2023-05-25T01:31:51.089Z,84.41
2023-05-25T01:33:55.143Z,84.35
2023-05-25T01:35:59.561Z,84.32
2023-05-25T01:38:04.539Z,84.57
2023-05-25T01:40:10.279Z,84.63
2023-05-25T01:42:13.771Z,84.66
2023-05-25T01:44:17.157Z,84.95
2023-05-25T01:46:29.650Z,84.91
2023-05-25T01:48:44.211Z,84.90
2023-05-25T01:50:55.838Z,84.99
2023-05-25T01:53:05.856Z,85.02
2023-05-25T01:55:13.040Z,85.04
2023-05-25T01:57:18.773Z,85.08
2023-05-25T01:59:24.364Z,85.25
2023-05-25T02:01:29.573Z,85.27
2023-05-25T02:03:32.994Z,85.34
2023-05-25T02:05:36.667Z,85.44
2023-05-25T02:07:41.759Z,85.49
2023-05-25T02:09:46.564Z,85.55
2023-05-25T02:11:50.538Z,85.57
2023-05-25T02:13:53.868Z,85.59
2023-05-25T02:15:57.633Z,85.77
2023-05-25T02:18:01.402Z,85.80
2023-05-25T02:20:08.619Z,86.02
2023-05-25T02:22:12.054Z,86.01
2023-05-25T02:24:15.337Z,86.16
2023-05-25T02:26:20.038Z,86.15
2023-05-25T02:28:23.372Z,86.34
2023-05-25T02:30:26.788Z,86.32
2023-05-25T02:32:33.769Z,86.53
2023-05-25T02:34:38.671Z,86.54
2023-05-25T02:36:43.671Z,86.51
2023-05-25T02:38:49.843Z,86.55
2023-05-25T02:40:54.398Z,86.59
2023-05-25T02:42:59.149Z,86.58
2023-05-25T02:45:02.545Z,86.78
2023-05-25T02:47:07.721Z,86.69
2023-05-25T02:49:11.319Z,86.77
2023-05-25T02:51:14.753Z,86.78
2023-05-25T02:53:18.142Z,86.98
2023-05-25T02:55:21.516Z,87.09
2023-05-25T02:57:24.932Z,87.08
2023-05-25T02:59:29.676Z,87.05
2023-05-25T03:01:35.186Z,87.20
2023-05-25T03:03:38.704Z,87.17
2023-05-25T03:05:42.136Z,87.20
2023-05-25T03:07:45.879Z,87.25
2023-05-25T03:09:49.582Z,87.33
2023-05-25T03:11:52.966Z,87.48
2023-05-25T03:13:57.621Z,87.46
2023-05-25T03:16:02.426Z,87.66
2023-05-25T03:18:05.969Z,87.65
2023-05-25T03:20:15.701Z,87.73
2023-05-25T03:22:22.580Z,87.71
2023-05-25T03:24:26.832Z,87.68
2023-05-25T03:26:32.328Z,87.52
2023-05-25T03:28:37.214Z,87.67
2023-05-25T03:30:41.097Z,87.77
2023-05-25T03:32:47.174Z,87.75
2023-05-25T03:34:50.490Z,87.84
2023-05-25T03:36:55.169Z,87.75
2023-05-25T03:38:58.849Z,87.80
2023-05-25T03:41:02.220Z,87.86
2023-05-25T03:43:05.600Z,87.89
2023-05-25T03:45:10.158Z,87.97
2023-05-25T03:47:14.020Z,87.96
2023-05-25T03:49:18.791Z,87.85
2023-05-25T03:51:22.197Z,87.93
2023-05-25T03:53:25.593Z,88.00
2023-05-25T03:55:29.544Z,88.08
2023-05-25T03:57:32.892Z,88.04
2023-05-25T03:59:36.192Z,88.21
2023-05-25T04:01:40.171Z,88.21
2023-05-25T04:03:43.600Z,88.22
2023-05-25T04:05:48.344Z,88.32
2023-05-25T04:07:52.240Z,88.36
2023-05-25T04:09:55.592Z,88.24
2023-05-25T04:11:58.942Z,88.36
2023-05-25T04:14:02.291Z,88.34
2023-05-25T04:16:10.280Z,88.19
2023-05-25T04:18:14.014Z,88.07
2023-05-25T04:20:17.954Z,88.01
2023-05-25T04:22:22.826Z,87.78
2023-05-25T04:24:26.463Z,87.81
2023-05-25T04:26:30.561Z,87.66
2023-05-25T04:28:34.162Z,87.56
2023-05-25T04:31:00.166Z,87.38
2023-05-25T04:33:29.851Z,87.36
2023-05-25T04:35:50.611Z,87.11
2023-05-25T04:37:56.960Z,87.00
2023-05-25T04:40:01.692Z,86.75
2023-05-25T04:42:06.431Z,86.39
2023-05-25T04:44:10.873Z,86.13
2023-05-25T04:46:22.325Z,85.88
2023-05-25T04:48:25.737Z,85.80
2023-05-25T04:50:29.167Z,85.73
2023-05-25T04:52:32.627Z,85.49
2023-05-25T04:54:37.556Z,85.64
2023-05-25T04:56:41.074Z,85.07
2023-05-25T04:58:44.976Z,85.06
2023-05-25T05:00:49.705Z,84.94
2023-05-25T05:02:56.665Z,84.76
2023-05-25T05:05:00.212Z,84.58
2023-05-25T05:07:04.045Z,84.54
2023-05-25T05:09:07.930Z,84.36
2023-05-25T05:11:12.649Z,84.48
2023-05-25T05:13:16.202Z,84.41
2023-05-25T05:15:20.073Z,84.33
2023-05-25T05:17:26.425Z,84.06
2023-05-25T05:19:30.030Z,84.09
2023-05-25T05:21:33.506Z,83.90
2023-05-25T05:23:38.729Z,83.70
2023-05-25T05:25:42.232Z,83.73
2023-05-25T05:27:47.540Z,83.66
2023-05-25T05:29:59.896Z,83.59
2023-05-25T05:32:03.479Z,83.41
2023-05-25T05:34:08.760Z,83.23
2023-05-25T05:36:12.155Z,83.00
2023-05-25T05:38:16.423Z,82.81
2023-05-25T05:40:19.761Z,82.64
2023-05-25T05:42:23.515Z,82.60
2023-05-25T05:44:29.500Z,82.45
2023-05-25T05:46:34.006Z,82.17
2023-05-25T05:48:37.733Z,81.96
2023-05-25T05:50:42.419Z,81.78
2023-05-25T05:52:48.189Z,81.78
2023-05-25T05:54:51.509Z,81.20
2023-05-25T05:56:55.154Z,81.00
2023-05-25T05:58:58.691Z,80.91
2023-05-25T06:01:04.394Z,80.72
2023-05-25T06:03:08.132Z,80.30
2023-05-25T06:05:11.629Z,79.74
2023-05-25T06:07:17.353Z,79.36
2023-05-25T06:09:20.737Z,79.31
2023-05-25T06:11:24.114Z,78.72
2023-05-25T06:13:27.534Z,78.58
2023-05-25T06:15:30.861Z,78.52
2023-05-25T06:17:37.609Z,78.27
2023-05-25T06:19:41.533Z,78.07
2023-05-25T06:21:44.873Z,77.68
2023-05-25T06:23:48.868Z,76.94
2023-05-25T06:25:54.002Z,76.08
2023-05-25T06:27:58.735Z,75.62
2023-05-25T06:30:02.814Z,75.12
2023-05-25T06:32:10.894Z,74.99
2023-05-25T06:34:16.141Z,74.42
2023-05-25T06:36:20.000Z,74.06
2023-05-25T06:38:24.007Z,73.71
2023-05-25T06:40:27.387Z,73.50
2023-05-25T06:42:30.701Z,73.03
2023-05-25T06:44:34.040Z,72.45
2023-05-25T06:46:39.327Z,71.47
2023-05-25T06:48:42.730Z,71.05
2023-05-25T06:50:47.556Z,70.81
2023-05-25T06:52:51.260Z,70.49
2023-05-25T06:54:54.729Z,70.39
2023-05-25T06:56:58.122Z,69.83
2023-05-25T06:59:01.554Z,69.41
2023-05-25T07:01:05.581Z,69.24
2023-05-25T07:03:09.096Z,68.85
2023-05-25T07:05:12.500Z,68.36
2023-05-25T07:07:17.381Z,67.40
2023-05-25T07:09:21.533Z,67.42
2023-05-25T07:11:25.149Z,67.54
2023-05-25T07:13:28.475Z,67.54
2023-05-25T07:15:31.858Z,67.37
2023-05-25T07:17:36.646Z,67.64
2023-05-25T07:19:40.321Z,67.41
2023-05-25T07:21:43.660Z,67.31
2023-05-25T07:23:48.383Z,67.32
2023-05-25T07:25:51.670Z,67.04
2023-05-25T07:27:55.374Z,66.81
2023-05-25T07:29:58.699Z,66.80
2023-05-25T07:32:01.987Z,66.72
2023-05-25T07:34:05.409Z,66.15
2023-05-25T07:36:09.929Z,65.27
2023-05-25T07:38:13.230Z,64.98
2023-05-25T07:40:17.984Z,64.79
2023-05-25T07:42:21.855Z,64.31
2023-05-25T07:44:25.240Z,64.09
2023-05-25T07:46:28.611Z,63.49
2023-05-25T07:48:31.991Z,62.99
2023-05-25T07:50:35.333Z,62.28
2023-05-25T07:52:39.441Z,61.92
2023-05-25T07:54:42.758Z,61.26
2023-05-25T07:56:47.567Z,60.71
2023-05-25T07:58:50.925Z,60.49
2023-05-25T08:00:54.303Z,59.70
2023-05-25T08:02:57.943Z,59.82
2023-05-25T08:05:05.556Z,59.54
2023-05-25T08:07:08.901Z,60.20
2023-05-25T08:09:13.347Z,60.29
2023-05-25T08:11:17.147Z,59.67
2023-05-25T08:13:21.824Z,58.77
2023-05-25T08:15:26.538Z,58.92
2023-05-25T08:17:29.918Z,58.10
2023-05-25T08:19:33.639Z,57.45
2023-05-25T08:21:37.778Z,57.42
2023-05-25T08:23:42.520Z,56.86
2023-05-25T08:25:46.323Z,56.28
2023-05-25T08:27:49.804Z,56.38
2023-05-25T08:29:54.535Z,56.14
2023-05-25T08:31:57.921Z,56.09
2023-05-25T08:34:01.722Z,55.59
2023-05-25T08:36:05.511Z,55.57
2023-05-25T08:38:08.840Z,54.87
2023-05-25T08:40:16.860Z,54.95
2023-05-25T08:42:20.288Z,55.04
2023-05-25T08:44:23.847Z,54.57
2023-05-25T08:46:32.257Z,54.28
2023-05-25T08:48:41.945Z,54.22
2023-05-25T08:50:46.897Z,53.85
2023-05-25T08:52:53.024Z,53.83
2023-05-25T08:55:01.262Z,54.11
2023-05-25T08:57:11.618Z,54.27
2023-05-25T08:59:27.793Z,54.03
2023-05-25T09:01:38.736Z,54.58
2023-05-25T09:03:44.044Z,54.53
2023-05-25T09:05:48.526Z,54.07
2023-05-25T09:07:54.785Z,54.33
2023-05-25T09:09:58.946Z,53.20
2023-05-25T09:12:03.023Z,53.15
2023-05-25T09:14:07.175Z,52.96
2023-05-25T09:16:11.271Z,52.66
2023-05-25T09:18:16.218Z,52.26
2023-05-25T09:20:20.791Z,52.70
2023-05-25T09:22:24.479Z,52.97
2023-05-25T09:24:28.077Z,51.94
2023-05-25T09:26:31.686Z,51.54
2023-05-25T09:28:34.984Z,50.87
2023-05-25T09:30:38.385Z,51.04
2023-05-25T09:32:42.049Z,51.13
2023-05-25T09:34:47.253Z,51.43
2023-05-25T09:36:50.853Z,51.53
2023-05-25T09:38:54.895Z,50.91
2023-05-25T09:40:58.553Z,50.40
2023-05-25T09:43:03.921Z,50.62
2023-05-25T09:45:08.202Z,49.99
2023-05-25T09:47:13.921Z,49.93
2023-05-25T09:49:17.922Z,49.77
2023-05-25T09:51:22.878Z,49.76
2023-05-25T09:53:27.548Z,49.63
2023-05-25T09:55:48.158Z,49.60
2023-05-25T09:57:55.904Z,49.58
2023-05-25T09:59:59.278Z,49.61
2023-05-25T10:02:02.916Z,49.10
2023-05-25T10:04:06.390Z,48.84
2023-05-25T10:06:10.036Z,48.58
2023-05-25T10:08:15.409Z,48.17
2023-05-25T10:10:18.922Z,47.38
2023-05-25T10:12:25.322Z,47.33
2023-05-25T10:14:30.247Z,47.28
2023-05-25T10:16:35.323Z,46.72
2023-05-25T10:18:45.086Z,47.07
2023-05-25T10:20:50.596Z,47.52
2023-05-25T10:22:58.789Z,47.40
2023-05-25T10:25:10.057Z,47.72
2023-05-25T10:27:26.969Z,47.05
2023-05-25T10:29:32.616Z,47.22
2023-05-25T10:31:37.828Z,47.16
2023-05-25T10:33:41.532Z,46.86
2023-05-25T10:36:01.686Z,47.40
2023-05-25T10:38:07.538Z,47.11
2023-05-25T10:40:13.975Z,46.63
2023-05-25T10:42:26.984Z,46.89
2023-05-25T10:44:31.077Z,47.10
2023-05-25T10:46:34.609Z,46.72
2023-05-25T10:48:39.475Z,46.09
2023-05-25T10:50:43.011Z,46.10
2023-05-25T10:52:46.357Z,45.82
2023-05-25T10:54:50.251Z,45.68
2023-05-25T10:57:14.749Z,45.21
2023-05-25T10:59:27.403Z,45.51
2023-05-25T11:01:34.343Z,45.70
2023-05-25T11:03:51.817Z,45.99
2023-05-25T11:05:55.239Z,45.94
2023-05-25T11:07:59.658Z,46.05
2023-05-25T11:10:03.479Z,46.32
2023-05-25T11:12:07.176Z,46.38
2023-05-25T11:14:22.756Z,46.56
2023-05-25T11:16:36.382Z,45.84
2023-05-25T11:18:40.251Z,45.39
2023-05-25T11:20:44.530Z,44.73
2023-05-25T11:22:49.381Z,45.26
2023-05-25T11:24:55.042Z,45.04
2023-05-25T11:27:01.004Z,45.07
2023-05-25T11:29:15.839Z,45.42
2023-05-25T11:31:23.576Z,44.73
2023-05-25T11:33:26.982Z,44.48
2023-05-25T11:35:33.748Z,44.57
2023-05-25T11:37:37.596Z,44.10
2023-05-25T11:39:41.247Z,44.29
2023-05-25T11:41:49.634Z,44.01
2023-05-25T11:43:53.471Z,44.07
2023-05-25T11:45:58.590Z,44.52
2023-05-25T11:48:01.950Z,44.43
2023-05-25T11:50:05.906Z,44.81
2023-05-25T11:52:09.569Z,44.68
2023-05-25T11:54:22.808Z,44.58
2023-05-25T11:56:35.079Z,44.40
2023-05-25T11:58:39.308Z,44.43
2023-05-25T12:00:42.848Z,44.38
2023-05-25T12:02:47.840Z,44.90
2023-05-25T12:04:55.486Z,44.88
2023-05-25T12:07:05.556Z,44.67
2023-05-25T12:09:13.410Z,43.80
2023-05-25T12:11:16.860Z,44.05
2023-05-25T12:13:21.831Z,43.87
2023-05-25T12:15:26.448Z,43.58
2023-05-25T12:17:30.289Z,43.65
2023-05-25T12:19:35.146Z,43.19
2023-05-25T12:21:39.663Z,43.27
2023-05-25T12:23:43.216Z,43.23
2023-05-25T12:25:51.047Z,43.72
2023-05-25T12:28:12.589Z,43.16
2023-05-25T12:30:16.290Z,42.84
2023-05-25T12:32:20.033Z,42.76
2023-05-25T12:34:29.387Z,42.93
2023-05-25T12:36:44.618Z,43.55
2023-05-25T12:38:59.789Z,42.85
2023-05-25T12:41:07.245Z,42.70
2023-05-25T12:43:11.917Z,42.88
2023-05-25T12:45:15.340Z,43.06
2023-05-25T12:47:20.937Z,42.83
2023-05-25T12:49:28.969Z,42.52
2023-05-25T12:51:39.495Z,42.54
2023-05-25T12:53:51.061Z,42.29
2023-05-25T12:56:02.172Z,41.88
2023-05-25T12:58:06.952Z,42.40
2023-05-25T13:00:11.759Z,42.51
2023-05-25T13:02:16.087Z,42.03
2023-05-25T13:04:19.422Z,41.37
2023-05-25T13:06:22.857Z,40.93
2023-05-25T13:08:26.178Z,40.84
2023-05-25T13:10:32.821Z,40.86
2023-05-25T13:12:36.539Z,40.71
2023-05-25T13:14:39.889Z,40.25
2023-05-25T13:16:43.221Z,39.42
2023-05-25T13:18:46.636Z,39.33
2023-05-25T13:20:51.904Z,39.00
2023-05-25T13:22:57.693Z,38.91
2023-05-25T13:25:02.203Z,38.43
2023-05-25T13:27:07.163Z,38.90
2023-05-25T13:29:10.705Z,38.74
2023-05-25T13:31:14.265Z,38.25
2023-05-25T13:33:17.603Z,37.81
2023-05-25T13:35:34.202Z,37.61
2023-05-25T13:37:37.632Z,38.49
2023-05-25T13:39:40.940Z,37.44
2023-05-25T13:41:44.203Z,37.36
2023-05-25T13:43:49.139Z,37.66
2023-05-25T13:45:52.512Z,37.45
2023-05-25T13:47:55.966Z,37.32
2023-05-25T13:49:59.416Z,36.84
2023-05-25T13:52:02.666Z,36.35
2023-05-25T13:54:06.328Z,36.45
2023-05-25T13:56:09.793Z,36.32
2023-05-25T13:58:13.109Z,36.05
2023-05-25T14:00:18.579Z,36.06
2023-05-25T14:02:21.947Z,35.88
2023-05-25T14:04:26.423Z,35.34
2023-05-25T14:06:30.828Z,35.51
2023-05-25T14:08:34.146Z,35.08
2023-05-25T14:10:39.019Z,35.48
2023-05-25T14:12:43.288Z,35.20
2023-05-25T14:14:46.604Z,35.26
2023-05-25T14:16:51.263Z,34.84
2023-05-25T14:18:55.592Z,35.00
2023-05-25T14:20:58.913Z,34.56
2023-05-25T14:23:02.210Z,34.27
2023-05-25T14:25:06.188Z,34.30
2023-05-25T14:27:09.713Z,34.06
2023-05-25T14:29:13.071Z,33.81
2023-05-25T14:31:16.615Z,33.82
2023-05-25T14:33:21.426Z,34.03
2023-05-25T14:35:24.910Z,34.18
2023-05-25T14:37:28.357Z,34.42
2023-05-25T14:39:31.675Z,34.62
2023-05-25T14:41:34.925Z,34.23
2023-05-25T14:43:38.223Z,34.20
2023-05-25T14:45:41.623Z,33.92
2023-05-25T14:47:45.521Z,34.04
2023-05-25T14:49:50.295Z,34.43
2023-05-25T14:51:53.749Z,34.74
2023-05-25T14:53:57.825Z,34.67
2023-05-25T14:56:01.765Z,35.08
2023-05-25T14:58:05.168Z,35.21
2023-05-25T15:00:10.005Z,35.06
2023-05-25T15:02:13.409Z,35.58
2023-05-25T15:04:16.977Z,35.63
2023-05-25T15:06:21.845Z,35.90
2023-05-25T15:08:25.130Z,35.74
2023-05-25T15:10:29.762Z,36.04
2023-05-25T15:12:33.075Z,36.28
2023-05-25T15:14:39.907Z,36.22
2023-05-25T15:16:43.612Z,36.33
2023-05-25T15:18:47.004Z,36.49
2023-05-25T15:20:50.355Z,36.48
2023-05-25T15:22:55.085Z,36.26
2023-05-25T15:24:59.392Z,36.46
2023-05-25T15:27:05.145Z,36.36
2023-05-25T15:29:08.491Z,36.61
2023-05-25T15:31:11.898Z,36.47
2023-05-25T15:33:15.770Z,36.62
2023-05-25T15:35:19.278Z,36.96
2023-05-25T15:37:22.580Z,37.10
2023-05-25T15:39:27.310Z,37.22
2023-05-25T15:41:30.638Z,37.44
2023-05-25T15:43:33.922Z,37.41
2023-05-25T15:45:37.389Z,37.43
2023-05-25T15:47:40.701Z,37.88
2023-05-25T15:49:44.085Z,38.13
2023-05-25T15:51:47.398Z,38.68
2023-05-25T15:53:50.694Z,38.36
2023-05-25T15:55:55.368Z,38.77
2023-05-25T15:57:58.663Z,38.71
2023-05-25T16:00:01.991Z,38.87
2023-05-25T16:02:05.767Z,39.02
2023-05-25T16:04:09.287Z,38.78
2023-05-25T16:06:12.714Z,39.07
2023-05-25T16:08:16.132Z,38.97
2023-05-25T16:10:19.647Z,39.13
2023-05-25T16:12:26.135Z,39.25
2023-05-25T16:14:29.443Z,39.62
2023-05-25T16:16:32.961Z,40.02
2023-05-25T16:18:36.414Z,40.69
2023-05-25T16:20:39.905Z,41.31
2023-05-25T16:22:43.262Z,41.64
2023-05-25T16:24:46.590Z,42.33
2023-05-25T16:26:49.941Z,42.78
2023-05-25T16:28:54.715Z,43.63
2023-05-25T16:30:58.058Z,43.99
2023-05-25T16:33:01.410Z,44.55
2023-05-25T16:35:05.165Z,45.04
2023-05-25T16:37:08.493Z,45.37
2023-05-25T16:39:11.920Z,46.13
2023-05-25T16:41:15.566Z,46.59
2023-05-25T16:43:18.823Z,46.80
2023-05-25T16:45:23.636Z,47.42
2023-05-25T16:47:27.034Z,47.65
2023-05-25T16:49:30.338Z,47.96
2023-05-25T16:51:33.657Z,48.01
2023-05-25T16:53:36.992Z,48.62
2023-05-25T16:55:40.316Z,49.06
2023-05-25T16:57:43.669Z,48.85
2023-05-25T16:59:47.042Z,48.99
2023-05-25T17:01:52.044Z,49.92
2023-05-25T17:03:55.610Z,50.41
2023-05-25T17:05:59.001Z,50.85
2023-05-25T17:08:02.815Z,51.03
2023-05-25T17:10:07.566Z,51.33
2023-05-25T17:12:11.007Z,51.42
2023-05-25T17:14:14.250Z,51.24
2023-05-25T17:16:17.774Z,50.80
2023-05-25T17:18:22.850Z,51.12
2023-05-25T17:20:26.196Z,50.82
2023-05-25T17:22:29.624Z,51.20
2023-05-25T17:24:32.953Z,51.18
2023-05-25T17:26:36.340Z,51.46
2023-05-25T17:28:39.664Z,51.45
2023-05-25T17:30:42.960Z,51.80
2023-05-25T17:32:47.040Z,51.60
2023-05-25T17:34:51.842Z,51.93
2023-05-25T17:36:55.153Z,51.59
2023-05-25T17:38:58.525Z,51.62
2023-05-25T17:41:01.846Z,51.84
2023-05-25T17:43:05.220Z,51.60
2023-05-25T17:45:11.665Z,51.63
2023-05-25T17:47:15.076Z,51.82
2023-05-25T17:49:18.412Z,52.04
2023-05-25T17:51:23.649Z,51.85
2023-05-25T17:53:27.193Z,52.07
2023-05-25T17:55:30.648Z,51.68
2023-05-25T17:57:33.988Z,51.92
2023-05-25T17:59:37.661Z,51.79
2023-05-25T18:01:41.903Z,51.96
2023-05-25T18:03:45.760Z,51.85
2023-05-25T18:05:49.345Z,52.23
2023-05-25T18:07:54.298Z,52.16
2023-05-25T18:09:57.644Z,51.77
2023-05-25T18:12:01.125Z,51.70
2023-05-25T18:14:05.116Z,51.50
2023-05-25T18:16:08.621Z,51.26
2023-05-25T18:18:12.040Z,51.22
2023-05-25T18:20:15.541Z,51.23
2023-05-25T18:22:19.081Z,51.15
2023-05-25T18:24:23.852Z,51.70
2023-05-25T18:26:27.804Z,51.89
2023-05-25T18:28:31.481Z,51.99
2023-05-25T18:30:34.958Z,52.33
2023-05-25T18:32:38.401Z,52.54
2023-05-25T18:34:42.467Z,53.07
2023-05-25T18:36:46.124Z,52.76
2023-05-25T18:38:49.660Z,53.07
2023-05-25T18:40:54.460Z,53.42
2023-05-25T18:42:57.826Z,53.52
2023-05-25T18:45:01.499Z,54.09
2023-05-25T18:47:05.042Z,54.14
2023-05-25T18:49:08.410Z,54.36
2023-05-25T18:51:12.322Z,54.69
2023-05-25T18:53:15.725Z,54.58
2023-05-25T18:55:19.401Z,54.63
2023-05-25T18:57:24.173Z,54.87
2023-05-25T18:59:27.931Z,55.33
2023-05-25T19:01:31.354Z,55.53
2023-05-25T19:03:34.943Z,55.30
2023-05-25T19:05:38.908Z,55.74
2023-05-25T19:07:54.896Z,56.15
2023-05-25T19:10:02.153Z,56.66
2023-05-25T19:12:07.265Z,57.04
2023-05-25T19:14:11.932Z,57.02
2023-05-25T19:16:15.616Z,57.32
2023-05-25T19:18:19.227Z,57.29
2023-05-25T19:20:22.674Z,57.85
2023-05-25T19:22:26.097Z,57.87
2023-05-25T19:24:29.356Z,58.15
2023-05-25T19:26:32.620Z,58.44
2023-05-25T19:28:35.943Z,58.67
2023-05-25T19:30:40.675Z,58.65
2023-05-25T19:32:44.021Z,58.83
2023-05-25T19:34:47.404Z,59.23
2023-05-25T19:36:59.753Z,59.62
2023-05-25T19:39:05.018Z,59.57
2023-05-25T19:41:08.429Z,59.97
2023-05-25T19:43:11.830Z,60.03
2023-05-25T19:45:15.184Z,60.00
2023-05-25T19:47:19.976Z,60.13
2023-05-25T19:49:23.318Z,60.33
2023-05-25T19:51:26.792Z,60.66
2023-05-25T19:53:31.567Z,60.57
2023-05-25T19:55:36.808Z,61.01
2023-05-25T19:57:40.153Z,60.85
2023-05-25T19:59:44.589Z,61.18
2023-05-25T20:01:48.062Z,61.21
2023-05-25T20:03:52.889Z,61.43
2023-05-25T20:05:56.417Z,61.63
2023-05-25T20:07:59.756Z,61.75
2023-05-25T20:10:03.151Z,61.92
2023-05-25T20:12:07.676Z,61.89
2023-05-25T20:14:10.969Z,62.31
2023-05-25T20:16:14.548Z,62.44
2023-05-25T20:18:18.266Z,62.72
2023-05-25T20:20:22.994Z,62.85
2023-05-25T20:22:26.538Z,63.11
2023-05-25T20:24:29.797Z,63.15
2023-05-25T20:26:34.118Z,63.31
2023-05-25T20:28:37.571Z,63.37
2023-05-25T20:30:41.365Z,63.24
2023-05-25T20:32:44.878Z,63.40
2023-05-25T20:34:48.243Z,63.38
2023-05-25T20:36:53.109Z,63.24
2023-05-25T20:38:56.434Z,63.46
2023-05-25T20:40:59.720Z,63.70
2023-05-25T20:43:03.142Z,63.75
2023-05-25T20:45:07.396Z,63.62
2023-05-25T20:47:10.813Z,63.53
2023-05-25T20:49:14.079Z,63.70
2023-05-25T20:51:17.405Z,63.77
2023-05-25T20:53:22.319Z,63.84
2023-05-25T20:55:25.666Z,63.78
2023-05-25T20:57:29.757Z,63.62
2023-05-25T20:59:33.070Z,63.84
2023-05-25T21:01:36.413Z,63.95
2023-05-25T21:03:40.441Z,63.78
2023-05-25T21:05:44.989Z,63.98
2023-05-25T21:07:48.584Z,63.88
2023-05-25T21:09:53.534Z,64.24
2023-05-25T21:11:56.844Z,64.32
2023-05-25T21:14:00.376Z,64.49
2023-05-25T21:16:03.786Z,64.53
2023-05-25T21:18:08.621Z,64.49
2023-05-25T21:20:12.500Z,64.68
2023-05-25T21:22:16.194Z,64.58
2023-05-25T21:24:19.501Z,64.95
2023-05-25T21:26:24.203Z,64.87
2023-05-25T21:28:27.597Z,65.06
2023-05-25T21:30:30.961Z,65.03
2023-05-25T21:32:34.274Z,65.17
2023-05-25T21:34:37.609Z,65.31
2023-05-25T21:36:40.993Z,65.20
2023-05-25T21:38:44.438Z,65.51
2023-05-25T21:40:47.876Z,65.61
2023-05-25T21:42:54.384Z,65.66
2023-05-25T21:44:57.756Z,65.60
2023-05-25T21:47:01.150Z,65.84
2023-05-25T21:49:04.614Z,65.88
2023-05-25T21:51:07.964Z,65.91
2023-05-25T21:53:11.283Z,66.08
2023-05-25T21:55:14.636Z,66.18
2023-05-25T21:57:18.017Z,66.28
2023-05-25T21:59:22.738Z,66.25
2023-05-25T22:01:26.063Z,66.49
2023-05-25T22:03:29.361Z,66.71
2023-05-25T22:05:34.497Z,66.61
2023-05-25T22:07:37.857Z,66.91
2023-05-25T22:09:41.129Z,67.12
2023-05-25T22:11:44.468Z,66.88
2023-05-25T22:13:47.776Z,67.10
2023-05-25T22:15:52.604Z,67.20
2023-05-25T22:17:56.273Z,67.42
2023-05-25T22:22:09.643Z,67.45
2023-05-25T22:24:12.946Z,67.33
2023-05-25T22:26:16.352Z,67.47
2023-05-25T22:28:19.636Z,67.77
2023-05-25T22:30:23.053Z,67.69
2023-05-25T22:32:27.817Z,67.76
2023-05-25T22:34:31.192Z,67.93
2023-05-25T22:36:34.472Z,68.02
2023-05-25T22:38:37.748Z,68.24
2023-05-25T22:40:41.082Z,68.31
2023-05-25T22:42:49.892Z,68.39
2023-05-25T22:44:53.219Z,68.41
2023-05-25T22:46:56.663Z,68.49
2023-05-25T22:49:01.426Z,68.45
2023-05-25T22:51:04.765Z,68.79
2023-05-25T22:53:08.072Z,68.88
2023-05-25T22:55:11.773Z,68.93
2023-05-25T22:57:15.051Z,69.09
2023-05-25T22:59:19.022Z,69.10
2023-05-25T23:01:22.395Z,69.28
2023-05-25T23:03:25.837Z,69.29
2023-05-25T23:05:30.772Z,69.49
2023-05-25T23:07:34.127Z,69.31
2023-05-25T23:09:37.508Z,69.49
2023-05-25T23:11:41.146Z,69.59
2023-05-25T23:13:45.341Z,69.64
2023-05-25T23:15:49.086Z,69.65
2023-05-25T23:17:52.549Z,69.61
2023-05-25T23:19:56.029Z,69.72
2023-05-25T23:22:00.889Z,69.70
2023-05-25T23:24:04.319Z,69.85
2023-05-25T23:26:07.928Z,69.91
2023-05-25T23:28:11.449Z,70.13
2023-05-25T23:30:14.914Z,70.12
2023-05-25T23:32:18.408Z,70.14
2023-05-25T23:34:21.928Z,70.30
2023-05-25T23:36:26.313Z,70.24
2023-05-25T23:38:31.291Z,70.39
2023-05-25T23:40:34.717Z,70.41
2023-05-25T23:42:41.520Z,70.46
2023-05-25T23:44:44.954Z,70.51
2023-05-25T23:46:48.370Z,70.65
2023-05-25T23:48:51.896Z,70.69
2023-05-25T23:50:55.280Z,70.58
2023-05-25T23:52:58.689Z,70.71
2023-05-25T23:55:03.542Z,70.87
2023-05-25T23:57:07.118Z,70.76
2023-05-25T23:59:12.282Z,71.02
